Time;durP1;ratioP1;P1;durP2;ratioP2;P2;SDS_P1;SDS_P2;PMS_P1;PMS_P2;Temp;Humidity;BMP_temperature;BMP_pressure;BME280_temperature;BME280_humidity;BME280_pressure;Samples;Min_cycle;Max_cycle;Signal;HPM_P1;HPM_P2
2021/08/02 00:02:02;;;;;;;1.08;1.02;;;;;;;;;;5095768;28;20446;-61
2021/08/02 00:04:38;;;;;;;1.35;1.02;;;;;;;;;;5096248;28;20032;-62
2021/08/02 00:07:04;;;;;;;1.08;1.08;;;;;;;;;;5077686;28;20036;-62
2021/08/02 00:09:39;;;;;;;0.88;0.88;;;;;;;;;;5095951;28;20040;-63
2021/08/02 00:12:08;;;;;;;1.10;1.10;;;;;;;;;;5095921;28;20456;-62
2021/08/02 00:14:34;;;;;;;1.03;1.03;;;;;;;;;;5095877;28;20028;-62
2021/08/02 00:17:00;;;;;;;1.10;1.10;;;;;;;;;;5077577;28;20125;-63
2021/08/02 00:19:26;;;;;;;1.50;1.20;;;;;;;;;;5095639;28;20031;-63
2021/08/02 00:21:52;;;;;;;1.80;1.10;;;;;;;;;;5095896;28;20032;-63
2021/08/02 00:24:18;;;;;;;2.30;1.27;;;;;;;;;;5095724;28;20398;-63
2021/08/02 00:26:44;;;;;;;1.10;1.00;;;;;;;;;;5095727;28;20044;-61
2021/08/02 00:29:10;;;;;;;0.95;0.95;;;;;;;;;;5095994;28;20117;-61
2021/08/02 00:31:36;;;;;;;0.98;0.98;;;;;;;;;;5095771;28;20070;-61
2021/08/02 00:34:02;;;;;;;1.20;1.10;;;;;;;;;;5095486;28;20032;-61
2021/08/02 00:36:31;;;;;;;3.17;0.82;;;;;;;;;;5095622;28;20044;-62
2021/08/02 00:39:04;;;;;;;0.80;0.80;;;;;;;;;;5095375;28;20563;-62
2021/08/02 00:41:36;;;;;;;0.88;0.88;;;;;;;;;;5077555;28;20040;-62
2021/08/02 00:44:08;;;;;;;1.40;1.10;;;;;;;;;;5077193;28;20391;-62
2021/08/02 00:46:39;;;;;;;0.77;0.77;;;;;;;;;;5077337;28;20115;-62
2021/08/02 00:49:06;;;;;;;1.02;1.02;;;;;;;;;;5077428;28;20066;-62
2021/08/02 00:51:33;;;;;;;1.45;1.30;;;;;;;;;;5095086;28;20040;-63
2021/08/02 00:54:00;;;;;;;1.60;1.10;;;;;;;;;;5077074;28;20032;-62
2021/08/02 00:56:30;;;;;;;1.55;1.23;;;;;;;;;;5095021;28;20479;-62
2021/08/02 00:58:59;;;;;;;1.13;1.13;;;;;;;;;;5076901;28;20044;-62
2021/08/02 01:01:27;;;;;;;1.48;1.38;;;;;;;;;;5073264;28;20098;-63
2021/08/02 01:03:53;;;;;;;1.33;1.33;;;;;;;;;;5073482;28;20036;-63
2021/08/02 01:06:21;;;;;;;2.05;1.60;;;;;;;;;;5073923;28;20048;-63
2021/08/02 01:08:47;;;;;;;1.50;1.40;;;;;;;;;;5074599;28;20067;-63
2021/08/02 01:11:13;;;;;;;1.98;1.70;;;;;;;;;;5074486;28;20040;-62
2021/08/02 01:13:41;;;;;;;1.85;1.75;;;;;;;;;;5073672;28;20024;-62
2021/08/02 01:16:08;;;;;;;1.83;1.70;;;;;;;;;;5074462;28;20045;-62
2021/08/02 01:18:37;;;;;;;1.65;1.55;;;;;;;;;;5073849;28;20043;-62
2021/08/02 01:21:04;;;;;;;3.33;1.73;;;;;;;;;;5074533;28;20512;-62
2021/08/02 01:23:30;;;;;;;1.55;1.38;;;;;;;;;;5074387;28;20082;-62
2021/08/02 01:25:57;;;;;;;1.95;1.27;;;;;;;;;;5074052;28;20038;-62
2021/08/02 01:28:24;;;;;;;2.13;1.52;;;;;;;;;;5074266;28;20507;-62
2021/08/02 01:30:52;;;;;;;2.10;1.40;;;;;;;;;;5072803;28;20127;-62
2021/08/02 01:33:28;;;;;;;4.70;1.52;;;;;;;;;;5056826;28;20035;-62
2021/08/02 01:36:00;;;;;;;2.72;1.67;;;;;;;;;;5072979;28;20033;-62
2021/08/02 01:38:27;;;;;;;2.15;1.70;;;;;;;;;;5072762;28;20045;-62
2021/08/02 01:40:53;;;;;;;1.95;1.63;;;;;;;;;;5072854;28;20028;-62
2021/08/02 01:43:19;;;;;;;1.85;1.75;;;;;;;;;;5073884;28;20066;-62
2021/08/02 01:45:53;;;;;;;1.63;1.60;;;;;;;;;;5073984;28;20032;-62
2021/08/02 01:48:24;;;;;;;2.17;1.88;;;;;;;;;;5072467;28;20550;-62
2021/08/02 01:50:55;;;;;;;1.98;1.88;;;;;;;;;;5072546;28;20051;-62
2021/08/02 01:53:23;;;;;;;3.25;2.25;;;;;;;;;;5073645;28;20123;-62
2021/08/02 01:56:11;;;;;;;2.58;2.00;;;;;;;;;;5072727;28;20056;-62
2021/08/02 01:58:40;;;;;;;2.22;2.05;;;;;;;;;;5065968;28;20053;-62
2021/08/02 02:01:20;;;;;;;2.42;2.13;;;;;;;;;;5072216;28;20076;-62
2021/08/02 02:03:47;;;;;;;2.22;2.03;;;;;;;;;;5072548;28;20033;-62
2021/08/02 02:06:14;;;;;;;2.92;2.00;;;;;;;;;;5072421;28;20054;-62
2021/08/02 02:08:47;;;;;;;2.35;2.25;;;;;;;;;;5072315;28;20101;-62
2021/08/02 02:11:25;;;;;;;2.35;2.17;;;;;;;;;;5072123;28;20040;-62
2021/08/02 02:14:01;;;;;;;2.17;1.98;;;;;;;;;;5072322;28;20037;-62
2021/08/02 02:16:29;;;;;;;2.08;1.98;;;;;;;;;;5072242;28;20085;-62
2021/08/02 02:18:56;;;;;;;2.20;2.10;;;;;;;;;;5073533;28;20017;-62
2021/08/02 02:21:25;;;;;;;3.47;2.38;;;;;;;;;;5073140;28;20091;-62
2021/08/02 02:23:54;;;;;;;2.47;2.27;;;;;;;;;;5056247;28;20025;-63
2021/08/02 02:26:22;;;;;;;2.83;2.58;;;;;;;;;;5072196;28;20036;-63
2021/08/02 02:28:48;;;;;;;2.58;2.38;;;;;;;;;;5071838;28;20036;-63
2021/08/02 02:31:14;;;;;;;2.42;2.33;;;;;;;;;;5073706;28;20037;-63
2021/08/02 02:33:44;;;;;;;3.03;2.60;;;;;;;;;;5072090;28;20108;-63
2021/08/02 02:36:13;;;;;;;3.10;2.83;;;;;;;;;;5073348;28;20090;-63
2021/08/02 02:38:38;;;;;;;3.13;2.83;;;;;;;;;;5072480;28;20078;-63
2021/08/02 02:41:06;;;;;;;2.85;2.65;;;;;;;;;;5055432;28;20036;-63
2021/08/02 02:43:37;;;;;;;3.30;3.00;;;;;;;;;;5072439;28;20075;-62
2021/08/02 02:46:03;;;;;;;7.00;3.28;;;;;;;;;;5073353;28;20083;-62
2021/08/02 02:48:31;;;;;;;3.42;3.05;;;;;;;;;;5072068;28;20031;-62
2021/08/02 02:50:58;;;;;;;4.80;3.38;;;;;;;;;;5072104;28;20036;-63
2021/08/02 02:53:24;;;;;;;3.45;3.15;;;;;;;;;;5071792;28;20469;-64
2021/08/02 02:55:50;;;;;;;4.25;3.95;;;;;;;;;;5071922;28;20090;-63
2021/08/02 02:58:18;;;;;;;4.28;3.20;;;;;;;;;;5073164;28;20024;-63
2021/08/02 03:00:45;;;;;;;6.45;3.72;;;;;;;;;;5071505;28;20032;-63
2021/08/02 03:03:15;;;;;;;4.25;3.97;;;;;;;;;;5073381;28;20029;-64
2021/08/02 03:05:41;;;;;;;6.22;3.72;;;;;;;;;;5071597;28;20075;-62
2021/08/02 03:08:08;;;;;;;3.70;3.42;;;;;;;;;;5071464;28;20066;-62
2021/08/02 03:10:34;;;;;;;4.88;4.47;;;;;;;;;;5071746;28;20126;-61
2021/08/02 03:13:00;;;;;;;5.13;4.63;;;;;;;;;;5073216;28;20063;-61
2021/08/02 03:15:26;;;;;;;4.38;4.00;;;;;;;;;;5072211;28;20070;-61
2021/08/02 03:17:51;;;;;;;5.03;4.43;;;;;;;;;;5073320;28;20036;-61
2021/08/02 03:20:17;;;;;;;4.85;4.50;;;;;;;;;;5072486;28;20044;-61
2021/08/02 03:22:50;;;;;;;6.32;4.70;;;;;;;;;;5071478;28;20039;-61
2021/08/02 03:25:34;;;;;;;6.10;4.80;;;;;;;;;;5072831;28;20464;-61
2021/08/02 03:28:20;;;;;;;4.72;4.35;;;;;;;;;;5072680;28;20404;-61
2021/08/02 03:30:48;;;;;;;5.10;4.75;;;;;;;;;;5071705;28;20094;-62
2021/08/02 03:33:14;;;;;;;5.57;5.13;;;;;;;;;;5072668;28;20063;-62
2021/08/02 03:35:43;;;;;;;5.00;4.60;;;;;;;;;;5072878;28;20033;-63
2021/08/02 03:38:09;;;;;;;5.07;4.57;;;;;;;;;;5072942;28;20029;-63
2021/08/02 03:40:34;;;;;;;5.60;5.07;;;;;;;;;;5072666;28;20520;-62
2021/08/02 03:43:00;;;;;;;5.13;4.65;;;;;;;;;;5076278;28;20029;-62
2021/08/02 03:45:26;;;;;;;5.38;4.25;;;;;;;;;;5076530;28;20037;-63
2021/08/02 03:47:51;;;;;;;4.70;4.30;;;;;;;;;;5076199;28;20470;-63
2021/08/02 03:50:17;;;;;;;4.90;4.45;;;;;;;;;;5075065;28;20403;-62
2021/08/02 03:52:42;;;;;;;5.15;4.38;;;;;;;;;;5076185;28;20108;-62
2021/08/02 03:55:08;;;;;;;4.97;4.57;;;;;;;;;;5074956;28;20404;-62
2021/08/02 03:57:34;;;;;;;4.70;4.35;;;;;;;;;;5076020;28;20033;-63
2021/08/02 03:59:59;;;;;;;5.95;4.85;;;;;;;;;;5075539;28;20082;-63
2021/08/02 04:02:26;;;;;;;4.72;4.43;;;;;;;;;;5093128;28;20098;-63
2021/08/02 04:04:52;;;;;;;5.32;4.82;;;;;;;;;;5077816;28;20032;-63
2021/08/02 04:07:18;;;;;;;6.05;4.50;;;;;;;;;;5095473;28;20399;-63
2021/08/02 04:09:43;;;;;;;5.75;5.25;;;;;;;;;;5095615;28;20039;-63
2021/08/02 04:12:09;;;;;;;6.55;5.68;;;;;;;;;;5095500;28;20038;-63
2021/08/02 04:14:35;;;;;;;6.78;6.20;;;;;;;;;;5095665;28;20040;-63
2021/08/02 04:17:02;;;;;;;6.93;6.20;;;;;;;;;;5095463;28;20028;-63
2021/08/02 04:19:27;;;;;;;8.50;6.05;;;;;;;;;;5095893;28;20044;-63
2021/08/02 04:21:53;;;;;;;7.10;6.20;;;;;;;;;;5095783;28;20511;-62
2021/08/02 04:24:18;;;;;;;7.97;7.22;;;;;;;;;;5095690;28;20040;-63
2021/08/02 04:26:44;;;;;;;10.48;6.95;;;;;;;;;;5095942;28;20043;-63
2021/08/02 04:29:10;;;;;;;10.90;7.93;;;;;;;;;;5095655;28;20040;-63
2021/08/02 04:31:35;;;;;;;8.98;8.07;;;;;;;;;;5095700;28;20104;-63
2021/08/02 04:34:01;;;;;;;8.45;7.60;;;;;;;;;;5095419;28;20119;-63
2021/08/02 04:36:26;;;;;;;7.63;6.82;;;;;;;;;;5095306;28;20032;-63
2021/08/02 04:38:52;;;;;;;8.48;7.63;;;;;;;;;;5095219;28;20059;-63
2021/08/02 04:41:18;;;;;;;10.07;7.70;;;;;;;;;;5095443;28;20054;-63
2021/08/02 04:43:45;;;;;;;8.60;7.63;;;;;;;;;;5095174;28;20032;-63
2021/08/02 04:46:11;;;;;;;10.63;8.40;;;;;;;;;;5095339;28;20109;-63
2021/08/02 04:48:37;;;;;;;11.18;8.27;;;;;;;;;;5077146;28;20541;-63
2021/08/02 04:51:02;;;;;;;10.90;8.23;;;;;;;;;;5095196;28;20116;-63
2021/08/02 04:53:28;;;;;;;9.23;8.15;;;;;;;;;;5094715;28;20101;-63
2021/08/02 04:55:53;;;;;;;12.30;8.77;;;;;;;;;;5095335;28;20464;-63
2021/08/02 04:58:19;;;;;;;12.13;9.27;;;;;;;;;;5095535;28;20036;-63
2021/08/02 05:00:44;;;;;;;11.43;8.93;;;;;;;;;;5094551;28;20024;-63
2021/08/02 05:03:10;;;;;;;11.18;9.35;;;;;;;;;;5095094;28;20040;-63
2021/08/02 05:05:35;;;;;;;12.77;9.95;;;;;;;;;;5094396;28;20067;-63
2021/08/02 05:08:01;;;;;;;11.90;9.43;;;;;;;;;;5094601;28;20069;-63
2021/08/02 05:10:28;;;;;;;11.55;9.45;;;;;;;;;;5094673;28;20411;-63
2021/08/02 05:12:54;;;;;;;11.15;9.02;;;;;;;;;;5094957;28;20048;-63
2021/08/02 05:15:19;;;;;;;10.07;8.85;;;;;;;;;;5094671;28;20115;-63
2021/08/02 05:17:45;;;;;;;8.65;7.80;;;;;;;;;;5094555;28;20032;-63
2021/08/02 05:20:11;;;;;;;7.50;6.75;;;;;;;;;;5094691;28;20031;-62
2021/08/02 05:22:38;;;;;;;8.70;6.28;;;;;;;;;;5094580;28;20040;-62
2021/08/02 05:25:06;;;;;;;8.05;6.20;;;;;;;;;;5094296;28;20028;-62
2021/08/02 05:27:31;;;;;;;8.38;7.03;;;;;;;;;;5094490;28;20134;-61
2021/08/02 05:29:57;;;;;;;6.07;5.57;;;;;;;;;;5094457;28;20527;-62
2021/08/02 05:32:22;;;;;;;5.32;4.80;;;;;;;;;;5094318;28;20055;-62
2021/08/02 05:34:49;;;;;;;6.75;6.07;;;;;;;;;;5076572;28;20070;-62
2021/08/02 05:37:15;;;;;;;5.80;5.35;;;;;;;;;;5094801;28;20040;-62
2021/08/02 05:39:40;;;;;;;5.90;5.40;;;;;;;;;;5094076;28;20020;-62
2021/08/02 05:42:06;;;;;;;7.10;6.07;;;;;;;;;;5094010;28;20028;-61
2021/08/02 05:44:32;;;;;;;6.90;6.13;;;;;;;;;;5094068;28;20032;-61
2021/08/02 05:46:58;;;;;;;6.57;5.88;;;;;;;;;;5094402;28;20052;-61
2021/08/02 05:49:24;;;;;;;6.13;5.53;;;;;;;;;;5094197;28;20519;-61
2021/08/02 05:51:49;;;;;;;7.15;5.55;;;;;;;;;;5076308;28;20035;-61
2021/08/02 05:54:15;;;;;;;6.75;5.68;;;;;;;;;;5094315;28;20047;-62
2021/08/02 05:56:42;;;;;;;5.53;5.10;;;;;;;;;;5093821;28;20036;-62
2021/08/02 05:59:07;;;;;;;5.88;4.88;;;;;;;;;;5093761;28;20039;-62
2021/08/02 06:01:33;;;;;;;5.45;4.95;;;;;;;;;;5093362;28;20040;-63
2021/08/02 06:03:59;;;;;;;5.45;4.05;;;;;;;;;;5093322;28;20032;-63
2021/08/02 06:06:24;;;;;;;4.68;4.28;;;;;;;;;;5075428;28;20035;-63
2021/08/02 06:08:51;;;;;;;4.63;4.10;;;;;;;;;;5075231;28;20043;-62
2021/08/02 06:11:16;;;;;;;4.72;4.28;;;;;;;;;;5093544;28;20020;-62
2021/08/02 06:13:42;;;;;;;3.88;3.53;;;;;;;;;;5075641;28;20040;-62
2021/08/02 06:16:07;;;;;;;4.07;3.72;;;;;;;;;;5093854;28;20035;-62
2021/08/02 06:18:33;;;;;;;4.10;3.65;;;;;;;;;;5093544;28;20404;-62
2021/08/02 06:20:59;;;;;;;4.28;3.45;;;;;;;;;;5093499;28;20035;-62
2021/08/02 06:23:24;;;;;;;3.63;3.35;;;;;;;;;;5093587;28;20032;-62
2021/08/02 06:25:50;;;;;;;3.42;3.17;;;;;;;;;;5093674;28;20055;-62
2021/08/02 06:28:16;;;;;;;3.50;3.17;;;;;;;;;;5093612;28;20033;-62
2021/08/02 06:30:41;;;;;;;3.42;3.15;;;;;;;;;;5093291;28;20085;-62
2021/08/02 06:33:07;;;;;;;3.10;2.88;;;;;;;;;;5093625;28;20051;-62
2021/08/02 06:35:34;;;;;;;4.45;2.75;;;;;;;;;;5093231;28;20032;-62
2021/08/02 06:38:00;;;;;;;3.17;2.90;;;;;;;;;;5093666;28;20047;-63
2021/08/02 06:40:26;;;;;;;2.85;2.63;;;;;;;;;;5093308;28;20016;-62
2021/08/02 06:42:51;;;;;;;3.22;2.92;;;;;;;;;;5093366;28;20119;-63
2021/08/02 06:45:17;;;;;;;3.38;3.17;;;;;;;;;;5093591;28;20048;-62
2021/08/02 06:47:43;;;;;;;2.88;2.67;;;;;;;;;;5093650;28;20032;-63
2021/08/02 06:50:08;;;;;;;5.40;3.17;;;;;;;;;;5093388;28;20024;-63
2021/08/02 06:52:34;;;;;;;3.95;3.10;;;;;;;;;;5093056;28;20036;-63
2021/08/02 06:55:01;;;;;;;3.88;3.47;;;;;;;;;;5092675;28;20467;-63
2021/08/02 06:57:27;;;;;;;4.43;3.15;;;;;;;;;;5093028;28;20496;-63
2021/08/02 06:59:57;;;;;;;3.80;3.50;;;;;;;;;;5092909;28;20034;-62
2021/08/02 07:02:22;;;;;;;5.47;2.97;;;;;;;;;;5092829;28;20035;-62
2021/08/02 07:04:48;;;;;;;3.58;3.38;;;;;;;;;;5092979;28;20488;-62
2021/08/02 07:07:13;;;;;;;5.00;3.35;;;;;;;;;;5092802;28;20491;-63
2021/08/02 07:09:39;;;;;;;3.83;3.13;;;;;;;;;;5092870;28;20081;-62
2021/08/02 07:12:04;;;;;;;3.90;3.50;;;;;;;;;;5075273;28;20115;-62
2021/08/02 07:14:30;;;;;;;4.68;3.53;;;;;;;;;;5092796;28;20058;-62
2021/08/02 07:16:55;;;;;;;4.65;3.60;;;;;;;;;;5078092;28;20035;-62
2021/08/02 07:19:21;;;;;;;4.38;3.97;;;;;;;;;;5096602;28;20035;-62
2021/08/02 07:21:47;;;;;;;4.25;3.22;;;;;;;;;;5096832;28;20036;-62
2021/08/02 07:24:12;;;;;;;4.05;3.28;;;;;;;;;;5096593;28;20024;-63
2021/08/02 07:26:38;;;;;;;4.35;3.92;;;;;;;;;;5096702;28;20028;-63
2021/08/02 07:29:04;;;;;;;4.45;4.05;;;;;;;;;;5096535;28;20030;-62
2021/08/02 07:31:31;;;;;;;4.68;4.28;;;;;;;;;;5096684;28;20086;-62
2021/08/02 07:33:56;;;;;;;4.35;3.85;;;;;;;;;;5096686;28;20110;-63
2021/08/02 07:36:22;;;;;;;4.15;3.75;;;;;;;;;;5096595;28;20062;-62
2021/08/02 07:38:47;;;;;;;4.53;3.53;;;;;;;;;;5096492;28;20024;-63
2021/08/02 07:41:13;;;;;;;6.03;4.18;;;;;;;;;;5096456;28;20073;-63
2021/08/02 07:43:39;;;;;;;8.68;3.92;;;;;;;;;;5096612;28;20036;-62
2021/08/02 07:46:04;;;;;;;4.45;4.07;;;;;;;;;;5096306;28;20031;-62
2021/08/02 07:48:30;;;;;;;3.97;3.45;;;;;;;;;;5096224;28;20028;-62
2021/08/02 07:50:56;;;;;;;4.72;3.20;;;;;;;;;;5077898;28;20080;-63
2021/08/02 07:53:21;;;;;;;4.18;3.70;;;;;;;;;;5096185;28;20036;-62
2021/08/02 07:55:48;;;;;;;4.43;3.58;;;;;;;;;;5096172;28;20048;-62
2021/08/02 07:58:13;;;;;;;3.75;3.38;;;;;;;;;;5096032;28;20494;-63
2021/08/02 08:00:39;;;;;;;3.53;3.28;;;;;;;;;;5095967;28;20036;-63
2021/08/02 08:03:05;;;;;;;3.88;3.45;;;;;;;;;;5096627;28;20059;-63
2021/08/02 08:05:31;;;;;;;3.60;3.28;;;;;;;;;;5096305;28;20462;-62
2021/08/02 08:07:57;;;;;;;4.07;3.38;;;;;;;;;;5096423;28;20032;-62
2021/08/02 08:10:23;;;;;;;4.55;3.47;;;;;;;;;;5096066;28;20111;-63
2021/08/02 08:12:51;;;;;;;4.10;3.70;;;;;;;;;;5096023;28;20035;-62
2021/08/02 08:15:18;;;;;;;3.75;3.45;;;;;;;;;;5077981;28;20039;-63
2021/08/02 08:17:44;;;;;;;6.25;3.63;;;;;;;;;;5078075;28;20511;-62
2021/08/02 08:20:11;;;;;;;3.85;3.28;;;;;;;;;;5095887;28;20136;-61
2021/08/02 08:22:37;;;;;;;4.03;3.63;;;;;;;;;;5095744;28;20028;-61
2021/08/02 08:25:03;;;;;;;4.68;3.78;;;;;;;;;;5077608;28;20035;-61
2021/08/02 08:27:28;;;;;;;3.88;3.45;;;;;;;;;;5095382;28;20338;-61
2021/08/02 08:29:54;;;;;;;4.20;3.47;;;;;;;;;;5095764;28;20142;-61
2021/08/02 08:32:20;;;;;;;3.75;3.42;;;;;;;;;;5095713;28;20426;-61
2021/08/02 08:34:46;;;;;;;9.25;5.38;;;;;;;;;;5095699;28;20035;-61
2021/08/02 08:37:11;;;;;;;8.45;5.50;;;;;;;;;;5095622;28;20020;-61
2021/08/02 08:39:36;;;;;;;9.48;5.22;;;;;;;;;;5095397;28;20093;-62
2021/08/02 08:42:02;;;;;;;11.55;6.53;;;;;;;;;;5095828;28;20499;-62
2021/08/02 08:44:28;;;;;;;12.43;7.68;;;;;;;;;;5095241;28;20407;-61
2021/08/02 08:46:53;;;;;;;10.43;7.68;;;;;;;;;;5095022;28;20024;-61
2021/08/02 08:49:19;;;;;;;8.07;6.47;;;;;;;;;;5095090;28;20438;-61
2021/08/02 08:51:45;;;;;;;7.95;5.40;;;;;;;;;;5095334;28;20058;-61
2021/08/02 08:54:11;;;;;;;7.78;5.63;;;;;;;;;;5095716;28;20039;-62
2021/08/02 08:56:36;;;;;;;7.50;5.80;;;;;;;;;;5094993;28;20031;-61
2021/08/02 08:59:02;;;;;;;7.03;4.03;;;;;;;;;;5095000;28;20047;-61
2021/08/02 09:01:28;;;;;;;7.55;3.75;;;;;;;;;;5094399;28;20040;-61
2021/08/02 09:03:55;;;;;;;5.95;4.80;;;;;;;;;;5094900;28;20036;-61
2021/08/02 09:06:20;;;;;;;9.13;4.38;;;;;;;;;;5094939;28;20035;-61
2021/08/02 09:08:46;;;;;;;5.78;5.05;;;;;;;;;;5076767;28;20468;-61
2021/08/02 09:11:21;;;;;;;4.57;4.28;;;;;;;;;;5094745;28;20024;-61
2021/08/02 09:13:47;;;;;;;6.13;3.25;;;;;;;;;;5094720;28;20032;-61
2021/08/02 09:16:14;;;;;;;4.47;3.88;;;;;;;;;;5076462;28;20032;-61
2021/08/02 09:18:40;;;;;;;5.95;4.25;;;;;;;;;;5094447;28;20036;-61
2021/08/02 09:21:11;;;;;;;5.50;3.85;;;;;;;;;;5094559;28;20028;-61
2021/08/02 09:23:47;;;;;;;4.60;3.80;;;;;;;;;;5091992;28;20070;-61
2021/08/02 09:26:14;;;;;;;5.10;3.67;;;;;;;;;;5074822;28;20032;-61
2021/08/02 09:29:09;;;;;;;5.18;3.60;;;;;;;;;;5059745;28;20034;-61
2021/08/02 09:31:46;;;;;;;5.65;3.20;;;;;;;;;;5066948;28;20043;-61
2021/08/02 09:34:22;;;;;;;3.07;2.83;;;;;;;;;;5076459;28;20039;-60
2021/08/02 09:37:23;;;;;;;4.70;3.00;;;;;;;;;;5076152;28;20062;-60
2021/08/02 09:40:03;;;;;;;4.32;3.92;;;;;;;;;;5058473;28;20047;-60
2021/08/02 09:42:35;;;;;;;3.20;2.90;;;;;;;;;;5075940;28;20059;-60
2021/08/02 09:45:08;;;;;;;4.63;4.30;;;;;;;;;;5075747;28;20069;-60
2021/08/02 09:47:40;;;;;;;4.35;4.00;;;;;;;;;;5075733;28;20077;-60
2021/08/02 09:50:12;;;;;;;5.03;4.53;;;;;;;;;;5076148;28;20044;-60
2021/08/02 09:52:55;;;;;;;4.57;4.18;;;;;;;;;;5076120;28;20036;-60
2021/08/02 09:55:30;;;;;;;3.90;3.60;;;;;;;;;;5076296;28;20040;-60
2021/08/02 09:58:01;;;;;;;3.83;3.03;;;;;;;;;;5075953;28;20040;-60
2021/08/02 10:00:33;;;;;;;;;;;;;;;;;;5076018;28;20051;-60
2021/08/02 10:03:11;;;;;;;3.08;2.88;;;;;;;;;;5070039;28;20074;-60
2021/08/02 10:05:49;;;;;;;3.40;3.20;;;;;;;;;;5051335;28;20037;-60
2021/08/02 10:08:22;;;;;;;3.20;2.90;;;;;;;;;;5017874;28;20033;-60
2021/08/02 10:10:57;;;;;;;2.70;2.42;;;;;;;;;;5018768;28;20417;-60
2021/08/02 10:13:32;;;;;;;2.88;2.58;;;;;;;;;;5018533;28;20041;-60
2021/08/02 10:16:02;;;;;;;3.53;3.28;;;;;;;;;;5018484;28;20199;-60
2021/08/02 10:18:32;;;;;;;3.65;3.45;;;;;;;;;;5018444;28;20041;-60
2021/08/02 10:21:04;;;;;;;3.13;2.83;;;;;;;;;;5018266;28;20033;-60
2021/08/02 10:23:33;;;;;;;6.75;3.50;;;;;;;;;;5017961;28;20087;-60
2021/08/02 10:26:04;;;;;;;3.15;2.97;;;;;;;;;;5017091;28;20390;-60
2021/08/02 10:28:33;;;;;;;3.53;3.22;;;;;;;;;;5018251;28;20033;-59
2021/08/02 10:31:05;;;;;;;3.30;3.10;;;;;;;;;;5018206;28;20079;-60
2021/08/02 10:33:40;;;;;;;3.80;3.47;;;;;;;;;;5018278;28;20044;-60
2021/08/02 10:36:16;;;;;;;7.60;3.78;;;;;;;;;;5017462;28;20045;-59
2021/08/02 10:38:48;;;;;;;3.20;3.00;;;;;;;;;;5015238;28;20045;-60
2021/08/02 10:41:29;;;;;;;2.83;2.63;;;;;;;;;;5034441;28;20044;-60
2021/08/02 10:44:21;;;;;;;3.00;2.80;;;;;;;;;;5018729;28;20123;-62
2021/08/02 10:46:59;;;;;;;2.58;2.38;;;;;;;;;;5034414;28;20381;-60
2021/08/02 10:49:33;;;;;;;2.67;2.47;;;;;;;;;;5018486;28;20217;-60
2021/08/02 10:52:04;;;;;;;2.50;2.40;;;;;;;;;;5022139;28;20388;-60
2021/08/02 10:54:44;;;;;;;2.58;2.40;;;;;;;;;;5022369;28;20045;-60
2021/08/02 10:57:16;;;;;;;2.85;2.75;;;;;;;;;;5075801;28;20469;-60
2021/08/02 10:59:48;;;;;;;3.17;2.97;;;;;;;;;;5058855;28;20381;-60
2021/08/02 11:02:22;;;;;;;4.07;2.67;;;;;;;;;;5075010;28;20705;-60
2021/08/02 11:04:53;;;;;;;2.88;2.67;;;;;;;;;;5076715;28;20127;-59
2021/08/02 11:07:19;;;;;;;4.18;3.75;;;;;;;;;;5076925;28;20764;-59
2021/08/02 11:09:45;;;;;;;3.35;3.05;;;;;;;;;;5070273;28;20025;-61
2021/08/02 11:12:13;;;;;;;3.25;3.00;;;;;;;;;;5056666;28;20155;-60
2021/08/02 11:14:45;;;;;;;2.85;2.70;;;;;;;;;;5056695;28;20454;-60
2021/08/02 11:17:18;;;;;;;2.67;2.58;;;;;;;;;;5056446;28;20469;-59
2021/08/02 11:19:44;;;;;;;2.72;2.53;;;;;;;;;;5056387;28;20041;-60
2021/08/02 11:22:10;;;;;;;2.92;2.33;;;;;;;;;;5056456;28;20086;-60
2021/08/02 11:24:37;;;;;;;2.78;2.67;;;;;;;;;;5056448;28;20037;-59
2021/08/02 11:27:03;;;;;;;3.10;2.30;;;;;;;;;;5056457;28;20021;-59
2021/08/02 11:29:33;;;;;;;3.10;2.05;;;;;;;;;;5056372;28;20059;-59
2021/08/02 11:31:59;;;;;;;2.13;2.03;;;;;;;;;;5054865;28;20029;-60
2021/08/02 11:34:25;;;;;;;2.50;2.28;;;;;;;;;;5056234;28;20029;-60
2021/08/02 11:36:57;;;;;;;2.63;2.17;;;;;;;;;;5056430;28;20033;-60
2021/08/02 11:39:23;;;;;;;1.95;1.83;;;;;;;;;;5055961;28;20033;-60
2021/08/02 11:41:57;;;;;;;2.10;2.00;;;;;;;;;;5055909;28;20052;-60
2021/08/02 11:44:23;;;;;;;2.00;1.90;;;;;;;;;;5056272;28;20064;-59
2021/08/02 11:46:48;;;;;;;2.10;1.90;;;;;;;;;;5056298;28;20033;-60
2021/08/02 11:49:14;;;;;;;2.10;1.90;;;;;;;;;;5056037;28;20037;-60
2021/08/02 11:51:40;;;;;;;1.83;1.73;;;;;;;;;;5054925;28;20029;-59
2021/08/02 11:54:05;;;;;;;1.75;1.65;;;;;;;;;;5055875;28;20037;-60
2021/08/02 11:56:31;;;;;;;2.08;1.98;;;;;;;;;;5055132;28;20465;-59
2021/08/02 11:58:57;;;;;;;2.90;1.83;;;;;;;;;;5055950;28;20056;-60
2021/08/02 12:01:22;;;;;;;1.70;1.60;;;;;;;;;;5056268;28;20417;-61
2021/08/02 12:03:53;;;;;;;1.75;1.65;;;;;;;;;;5075408;28;20059;-60
2021/08/02 12:06:19;;;;;;;1.98;1.88;;;;;;;;;;5075793;28;20059;-60
2021/08/02 12:08:52;;;;;;;1.90;1.80;;;;;;;;;;5075782;28;20068;-60
2021/08/02 12:11:18;;;;;;;2.33;1.83;;;;;;;;;;5075893;28;20500;-60
2021/08/02 12:13:45;;;;;;;1.90;1.80;;;;;;;;;;5075787;28;20107;-61
2021/08/02 12:16:11;;;;;;;2.90;2.33;;;;;;;;;;5075461;28;20097;-60
2021/08/02 12:18:37;;;;;;;2.85;2.22;;;;;;;;;;5075451;28;20025;-62
2021/08/02 12:21:11;;;;;;;1.83;1.73;;;;;;;;;;5075566;28;20446;-62
2021/08/02 12:23:37;;;;;;;3.55;2.75;;;;;;;;;;5075756;28;20037;-62
2021/08/02 12:26:13;;;;;;;3.47;2.20;;;;;;;;;;5075480;28;20027;-62
2021/08/02 12:28:39;;;;;;;2.90;2.70;;;;;;;;;;5075478;28;20484;-61
2021/08/02 12:31:04;;;;;;;2.80;2.58;;;;;;;;;;5075272;28;20027;-61
2021/08/02 12:33:30;;;;;;;2.83;2.63;;;;;;;;;;5075540;28;20404;-61
2021/08/02 12:35:56;;;;;;;2.92;2.72;;;;;;;;;;5075129;28;20024;-61
2021/08/02 12:38:22;;;;;;;2.53;2.42;;;;;;;;;;5075137;28;20494;-61
2021/08/02 12:40:57;;;;;;;2.72;2.53;;;;;;;;;;5074816;28;20044;-61
2021/08/02 12:43:23;;;;;;;2.97;2.47;;;;;;;;;;5074998;28;20090;-61
2021/08/02 12:45:48;;;;;;;4.10;2.17;;;;;;;;;;5073882;28;20456;-61
2021/08/02 12:48:14;;;;;;;2.58;2.38;;;;;;;;;;5075251;28;20090;-61
2021/08/02 12:50:39;;;;;;;1.45;1.35;;;;;;;;;;5074897;28;20373;-61
2021/08/02 12:53:05;;;;;;;3.72;2.58;;;;;;;;;;5075030;28;20044;-61
2021/08/02 12:55:31;;;;;;;2.40;2.30;;;;;;;;;;5075004;28;20025;-61
2021/08/02 12:57:56;;;;;;;2.55;2.38;;;;;;;;;;5074884;28;20040;-61
2021/08/02 13:00:22;;;;;;;2.20;2.10;;;;;;;;;;5074717;28;20028;-61
2021/08/02 13:02:48;;;;;;;2.88;2.67;;;;;;;;;;5074441;28;20431;-61
2021/08/02 13:05:14;;;;;;;1.90;1.40;;;;;;;;;;5056615;28;20511;-61
2021/08/02 13:07:39;;;;;;;2.85;2.53;;;;;;;;;;5074499;28;20036;-61
2021/08/02 13:10:05;;;;;;;3.13;2.92;;;;;;;;;;5074432;28;20044;-60
2021/08/02 13:12:31;;;;;;;2.83;2.67;;;;;;;;;;5074625;28;20043;-59
2021/08/02 13:14:57;;;;;;;3.05;2.85;;;;;;;;;;5074542;28;20443;-60
2021/08/02 13:17:22;;;;;;;2.28;2.17;;;;;;;;;;5074553;28;20489;-59
2021/08/02 13:19:48;;;;;;;3.20;2.90;;;;;;;;;;5073985;28;20082;-59
2021/08/02 13:22:15;;;;;;;2.47;2.38;;;;;;;;;;5074311;28;20469;-60
2021/08/02 13:27:25;;;;;;;2.30;2.20;;;;;;;;;;5074400;28;20058;-60
2021/08/02 13:29:51;;;;;;;2.90;2.25;;;;;;;;;;5073799;28;20459;-59
2021/08/02 13:32:16;;;;;;;2.42;2.33;;;;;;;;;;5074002;28;20039;-60
2021/08/02 13:34:42;;;;;;;2.88;2.67;;;;;;;;;;5073932;28;20032;-60
2021/08/02 13:37:08;;;;;;;2.00;1.90;;;;;;;;;;5074163;28;20064;-60
2021/08/02 13:39:35;;;;;;;1.95;1.85;;;;;;;;;;5073892;28;20472;-61
2021/08/02 13:45:37;;;;;;;2.47;2.05;;;;;;;;;;5074460;28;20031;-61
2021/08/02 13:51:38;;;;;;;3.58;2.53;;;;;;;;;;5074332;28;20063;-61
2021/08/02 13:57:40;;;;;;;3.00;2.67;;;;;;;;;;5073784;28;20122;-61
2021/08/02 14:00:06;;;;;;;3.08;2.67;;;;;;;;;;5073403;28;20045;-61
2021/08/02 14:02:39;;;;;;;3.00;2.67;;;;;;;;;;5056375;28;20090;-61
2021/08/02 14:05:08;;;;;;;3.08;2.88;;;;;;;;;;5073185;28;20040;-61
2021/08/02 14:07:34;;;;;;;3.15;2.95;;;;;;;;;;5073479;28;20033;-61
2021/08/02 14:09:59;;;;;;;2.92;2.67;;;;;;;;;;5073209;28;20086;-61
2021/08/02 14:12:28;;;;;;;3.00;2.75;;;;;;;;;;5073072;28;20056;-61
2021/08/02 14:14:55;;;;;;;2.90;2.38;;;;;;;;;;5073537;28;20048;-61
2021/08/02 14:17:25;;;;;;;5.53;2.63;;;;;;;;;;5073242;28;20093;-61
2021/08/02 14:19:52;;;;;;;3.83;2.75;;;;;;;;;;5073306;28;20040;-61
2021/08/02 14:22:18;;;;;;;2.72;2.53;;;;;;;;;;5073149;28;20027;-61
2021/08/02 14:24:46;;;;;;;2.60;2.50;;;;;;;;;;5073088;28;20490;-61
2021/08/02 14:27:11;;;;;;;2.90;2.70;;;;;;;;;;5073710;28;20112;-61
2021/08/02 14:29:40;;;;;;;2.45;2.25;;;;;;;;;;5073633;28;20067;-61
2021/08/02 14:32:06;;;;;;;2.10;2.00;;;;;;;;;;5073262;28;20060;-61
2021/08/02 14:34:32;;;;;;;2.10;2.00;;;;;;;;;;5073334;28;20502;-61
2021/08/02 14:36:58;;;;;;;2.50;2.30;;;;;;;;;;5073157;28;20032;-61
2021/08/02 14:39:25;;;;;;;1.80;1.70;;;;;;;;;;5072998;28;20115;-61
2021/08/02 14:41:57;;;;;;;2.10;1.98;;;;;;;;;;5073256;28;20059;-61
2021/08/02 14:44:24;;;;;;;2.20;2.10;;;;;;;;;;5073424;28;20446;-61
2021/08/02 14:46:51;;;;;;;2.00;1.90;;;;;;;;;;5055161;28;20023;-61
2021/08/02 14:49:17;;;;;;;2.40;2.22;;;;;;;;;;5073039;28;20040;-61
2021/08/02 14:51:47;;;;;;;2.10;2.00;;;;;;;;;;5073328;28;20032;-62
2021/08/02 14:54:14;;;;;;;2.50;2.30;;;;;;;;;;5073248;28;20028;-62
2021/08/02 14:56:40;;;;;;;2.15;1.98;;;;;;;;;;5073020;28;20099;-62
2021/08/02 14:59:06;;;;;;;2.10;2.00;;;;;;;;;;5073337;28;20032;-62
2021/08/02 15:01:36;;;;;;;3.60;2.00;;;;;;;;;;5072759;28;20036;-63